Time;durP1;ratioP1;P1;durP2;ratioP2;P2;SDS_P1;SDS_P2;PMS_P1;PMS_P2;Temp;Humidity;BMP_temperature;BMP_pressure;BME280_temperature;BME280_humidity;BME280_pressure;Samples;Min_cycle;Max_cycle;Signal;HPM_P1;HPM_P2
2021/04/12 00:01:12;;;;;;;0.75;0.68;;;;;;;1.89;65.93;101380.25;4861873;29;20036;-77
2021/04/12 00:03:56;;;;;;;1.35;0.90;;;;;;;1.87;65.12;101375.06;4858778;29;20032;-77
2021/04/12 00:06:38;;;;;;;0.80;0.80;;;;;;;1.90;65.50;101385.47;4856925;29;20037;-76
2021/04/12 00:09:25;;;;;;;0.95;0.93;;;;;;;1.87;65.37;101383.16;4860540;29;20115;-77
2021/04/12 00:12:03;;;;;;;1.75;1.05;;;;;;;1.84;65.17;101380.81;4866905;29;20034;-76
2021/04/12 00:14:41;;;;;;;1.60;1.50;;;;;;;1.85;65.52;101393.25;4860503;29;20026;-77
2021/04/12 00:17:09;;;;;;;1.77;1.10;;;;;;;1.81;65.13;101400.06;4846828;29;20033;-77
2021/04/12 00:20:00;;;;;;;1.85;1.30;;;;;;;1.61;65.13;101380.88;4858391;29;20038;-77
2021/04/12 00:22:39;;;;;;;3.22;0.80;;;;;;;1.58;65.31;101397.44;4851313;29;20050;-75
2021/04/12 00:25:05;;;;;;;1.10;1.00;;;;;;;1.53;65.09;101407.91;4856521;29;20040;-76
2021/04/12 00:27:48;;;;;;;1.48;1.38;;;;;;;1.47;65.38;101409.47;4858018;29;20030;-76
2021/04/12 00:30:14;;;;;;;7.22;1.85;;;;;;;1.41;66.17;101417.47;4862138;29;20025;-76
2021/04/12 00:32:47;;;;;;;22.05;4.30;;;;;;;1.31;65.43;101405.03;4857539;29;20063;-75
2021/04/12 00:35:33;;;;;;;25.25;6.63;;;;;;;1.24;66.21;101403.25;4857315;29;20072;-75
2021/04/12 00:38:18;;;;;;;35.95;7.75;;;;;;;1.21;66.78;101399.91;4870272;29;20029;-75
2021/04/12 00:41:07;;;;;;;6.88;4.15;;;;;;;1.23;67.03;101405.13;4870704;29;20063;-76
2021/04/12 00:44:10;;;;;;;6.18;2.60;;;;;;;1.28;66.93;101412.66;4861534;29;20038;-77
2021/04/12 00:47:14;;;;;;;10.77;1.80;;;;;;;1.19;67.15;101393.03;4874008;29;20114;-75
2021/04/12 00:49:58;;;;;;;1.80;1.70;;;;;;;1.18;67.74;101402.13;4874588;29;20025;-76
2021/04/12 00:52:44;;;;;;;1.65;1.55;;;;;;;1.17;68.08;101400.47;4861991;29;20381;-78
2021/04/12 00:55:20;;;;;;;2.08;1.33;;;;;;;1.00;67.53;101387.09;4852413;29;20029;-77
2021/04/12 00:58:14;;;;;;;;;;;;;;;;;;;;;
2021/04/12 01:01:09;;;;;;;2.28;2.08;;;;;;;0.97;67.88;101406.31;4862855;29;20116;-78
2021/04/12 01:03:55;;;;;;;14.45;3.20;;;;;;;0.86;68.31;101404.88;4841980;29;20048;-78
2021/04/12 01:06:48;;;;;;;;;;;;;;;;;;;;;
2021/04/12 01:09:38;;;;;;;35.78;8.23;;;;;;;0.74;68.19;101400.88;4854577;29;20014;-80
2021/04/12 01:12:18;;;;;;;30.50;7.60;;;;;;;0.69;68.83;101398.72;4857380;29;20036;-80
2021/04/12 01:18:22;;;;;;;13.05;2.95;;;;;;;0.70;69.81;101418.41;4858790;29;20086;-80
2021/04/12 01:21:36;;;;;;;3.55;1.70;;;;;;;0.68;69.96;101412.38;4855875;29;20033;-80
2021/04/12 01:28:47;;;;;;;2.30;1.45;;;;;;;0.64;70.71;101411.03;4860207;29;20041;-79
2021/04/12 01:35:10;;;;;;;2.30;2.10;;;;;;;0.61;70.18;101406.84;4793485;29;20062;-79
2021/04/12 01:38:20;;;;;;;5.45;2.47;;;;;;;0.51;70.66;101401.69;4810502;29;20039;-80
2021/04/12 01:48:21;;;;;;;;;;;;;;;;;;;;;
2021/04/12 01:51:15;;;;;;;;;;;;;;;;;;;;;
2021/04/12 01:54:45;;;;;;;4.10;1.52;;;;;;;0.70;70.45;101421.09;4847853;29;20082;-79
2021/04/12 01:57:52;;;;;;;;;;;;;;;;;;;;;
2021/04/12 02:00:21;;;;;;;4.50;3.58;;;;;;;0.67;69.79;101418.75;4841358;29;20136;-80
2021/04/12 02:03:33;;;;;;;8.52;3.55;;;;;;;0.78;69.23;101431.84;4855667;29;20026;-76
2021/04/12 02:06:44;;;;;;;5.97;2.90;;;;;;;0.77;69.05;101427.47;4848339;29;20120;-74
2021/04/12 02:09:33;;;;;;;2.28;2.08;;;;;;;0.64;69.02;101411.03;4837655;29;20061;-75
2021/04/12 02:12:43;;;;;;;;;;;;;;;;;;;;;
2021/04/12 02:15:42;;;;;;;1.80;1.70;;;;;;;0.71;68.37;101420.09;4836160;29;20117;-75
2021/04/12 02:18:46;;;;;;;1.60;1.10;;;;;;;0.67;68.24;101418.75;4827260;29;20041;-75
2021/04/12 02:21:39;;;;;;;3.15;1.40;;;;;;;0.62;68.40;101415.78;4807571;29;22536;-75
2021/04/12 02:24:23;;;;;;;2.88;1.90;;;;;;;0.52;68.35;101415.97;4827931;29;20026;-73
2021/04/12 02:27:03;;;;;;;2.47;1.92;;;;;;;0.50;68.02;101416.16;4850357;29;20037;-74
2021/04/12 02:30:09;;;;;;;5.63;2.78;;;;;;;0.54;68.68;101415.81;4851030;29;20029;-76
2021/04/12 02:33:01;;;;;;;5.05;2.60;;;;;;;0.49;68.37;101414.47;4831629;29;20140;-75
2021/04/12 02:35:45;;;;;;;8.57;2.92;;;;;;;0.47;68.24;101421.91;4834811;29;20497;-74
2021/04/12 02:38:32;;;;;;;4.22;3.58;;;;;;;0.36;68.20;101403.44;4857676;29;20060;-76
2021/04/12 02:41:08;;;;;;;1.85;1.75;;;;;;;0.43;68.28;101415.19;4853681;29;20082;-76
2021/04/12 02:44:08;;;;;;;1.63;1.52;;;;;;;0.37;68.32;101401.59;4837914;29;20116;-74
2021/04/12 02:47:14;;;;;;;2.00;1.67;;;;;;;0.42;68.08;101402.72;4847266;29;20388;-75
2021/04/12 02:49:40;;;;;;;1.90;1.25;;;;;;;0.45;68.76;101418.56;4848744;29;20034;-75
2021/04/12 02:52:36;;;;;;;;;;;;;;;;;;;;;
2021/04/12 02:55:37;;;;;;;1.60;1.48;;;;;;;0.43;68.77;101388.28;4853330;29;20096;-74
2021/04/12 02:58:33;;;;;;;3.30;1.33;;;;;;;0.63;69.23;101404.00;4834166;29;20041;-76
2021/04/12 03:01:09;;;;;;;2.10;1.17;;;;;;;0.68;68.71;101390.84;4847443;29;20051;-74
2021/04/12 03:04:06;;;;;;;2.92;2.45;;;;;;;0.89;68.38;101397.44;4870078;29;20045;-74
2021/04/12 03:06:53;;;;;;;2.58;2.22;;;;;;;0.98;68.57;101385.59;4852970;29;20137;-76
2021/04/12 03:09:42;;;;;;;2.25;1.42;;;;;;;1.14;68.43;101385.50;4864816;29;20041;-74
2021/04/12 03:12:35;;;;;;;1.55;1.13;;;;;;;1.29;67.72;101382.84;4853231;29;20120;-74
2021/04/12 03:15:10;;;;;;;1.05;0.95;;;;;;;1.43;67.85;101377.66;4844866;29;20037;-75
2021/04/12 03:18:01;;;;;;;;;;;;;;;;;;;;;
2021/04/12 03:20:58;;;;;;;1.65;1.55;;;;;;;1.76;67.51;101375.50;4847526;29;20037;-74
2021/04/12 03:23:56;;;;;;;1.70;1.00;;;;;;;1.87;67.38;101374.19;4848116;29;20295;-75
2021/04/12 03:26:50;;;;;;;0.80;0.73;;;;;;;2.07;66.68;101385.28;4855877;29;20029;-74
2021/04/12 03:29:37;;;;;;;;;;;;;;;;;;;;;
2021/04/12 03:32:30;;;;;;;;;;;;;;;;;;;;;
2021/04/12 03:35:29;;;;;;;2.20;1.35;;;;;;;2.31;65.37;101380.59;4848917;29;20037;-74
2021/04/12 03:38:36;;;;;;;;;;;;;;;;;;;;;
2021/04/12 03:41:19;;;;;;;1.48;1.30;;;;;;;2.30;65.32;101395.16;4855942;29;20029;-76
2021/04/12 03:44:12;;;;;;;2.35;1.42;;;;;;;2.30;65.46;101401.38;4856234;29;20033;-76
2021/04/12 03:46:56;;;;;;;3.15;1.45;;;;;;;2.19;66.30;101402.69;4854946;29;20548;-75
2021/04/12 03:49:52;;;;;;;2.15;1.98;;;;;;;2.19;65.51;101416.19;4856678;29;20033;-76
2021/04/12 03:52:52;;;;;;;8.68;2.67;;;;;;;2.09;66.30;101426.41;4835942;29;20085;-74
2021/04/12 03:55:20;;;;;;;3.30;1.95;;;;;;;2.02;66.78;101428.19;4852984;29;20087;-75
2021/04/12 03:57:48;;;;;;;3.70;2.10;;;;;;;2.02;67.12;101414.69;4850276;29;20091;-76
2021/04/12 04:00:41;;;;;;;1.45;1.25;;;;;;;2.08;67.66;101430.13;4856047;29;20052;-75
2021/04/12 04:04:09;;;;;;;1.67;1.45;;;;;;;1.95;68.54;101401.09;4844846;29;20022;-74
2021/04/12 04:06:49;;;;;;;1.23;1.13;;;;;;;2.22;67.74;101421.22;4857285;29;20101;-75
2021/04/12 04:09:36;;;;;;;0.52;0.50;;;;;;;2.30;67.26;101412.16;4842656;29;20026;-75
2021/04/12 04:12:38;;;;;;;0.70;0.70;;;;;;;2.45;67.38;101412.16;4849272;29;20040;-77
2021/04/12 04:15:23;;;;;;;0.30;0.30;;;;;;;2.51;67.25;101394.38;4852558;29;20052;-76
2021/04/12 04:18:12;;;;;;;0.40;0.40;;;;;;;2.65;67.02;101389.97;4850186;29;20030;-74
2021/04/12 04:20:59;;;;;;;1.52;0.20;;;;;;;2.88;66.83;101397.94;4843425;29;20265;-75
2021/04/12 04:24:16;;;;;;;0.20;0.20;;;;;;;3.02;67.46;101393.47;4844095;29;20078;-75
2021/04/12 04:27:02;;;;;;;0.20;0.20;;;;;;;3.14;67.37;101387.38;4849257;29;20045;-75
2021/04/12 04:30:16;;;;;;;0.03;0.03;;;;;;;3.25;66.63;101402.22;4847351;29;20029;-75
2021/04/12 04:33:12;;;;;;;1.10;0.25;;;;;;;3.20;66.05;101374.97;4845858;29;20044;-77
2021/04/12 04:35:57;;;;;;;0.47;0.40;;;;;;;3.29;66.23;101397.28;4851016;29;20503;-76
2021/04/12 04:38:32;;;;;;;0.20;0.20;;;;;;;3.27;67.03;101388.53;4847199;29;20049;-77
2021/04/12 04:40:58;;;;;;;;;;;;;;;3.37;65.67;101401.72;4831806;29;20734;-76
2021/04/12 04:43:48;;;;;;;;;;;;;;;3.38;65.33;101403.41;4851941;29;19919;-76
2021/04/12 04:46:34;;;;;;;0.77;0.63;;;;;;;3.29;66.47;101390.00;4858281;29;20007;-78
2021/04/12 04:49:30;;;;;;;0.70;0.70;;;;;;;3.27;65.60;101393.94;4863292;29;20382;-78
2021/04/12 04:52:49;;;;;;;;;;;;;;;;;;;;;
2021/04/12 04:55:28;;;;;;;0.73;0.30;;;;;;;3.29;66.53;101395.41;4858333;29;20041;-76
2021/04/12 05:02:25;;;;;;;;;;;;;;;;;;;;;
2021/04/12 05:08:52;;;;;;;;;;;;;;;;;;;;;
2021/04/12 05:11:38;;;;;;;0.60;0.60;;;;;;;3.04;66.73;101386.00;4854654;29;20041;-76
2021/04/12 05:14:57;;;;;;;1.45;1.35;;;;;;;3.08;66.75;101387.31;4855523;29;20093;-74
2021/04/12 05:18:02;;;;;;;;;;;;;;;;;;;;;
2021/04/12 05:21:13;;;;;;;3.45;1.73;;;;;;;2.88;66.50;101406.84;4855258;29;20038;-77
2021/04/12 05:31:14;;;;;;;2.97;1.38;;;;;;;2.60;68.05;101423.78;4844919;29;20022;-76
2021/04/12 05:34:30;;;;;;;;;;;;;;;;;;;;;
2021/04/12 05:37:32;;;;;;;2.53;1.50;;;;;;;2.41;68.71;101427.91;4870812;29;20072;-79
2021/04/12 05:40:23;;;;;;;;;;;;;;;;;;;;;
2021/04/12 05:43:36;;;;;;;;;;;;;;;;;;;;;
2021/04/12 05:47:20;;;;;;;1.70;1.60;;;;;;;2.29;68.68;101421.28;4867384;29;20080;-78
2021/04/12 05:58:17;;;;;;;2.70;1.83;;;;;;;2.50;69.18;101438.59;4808150;29;20107;-78
2021/04/12 06:04:03;;;;;;;3.45;1.42;;;;;;;2.47;70.32;101423.63;4868088;29;20045;-77
2021/04/12 06:07:00;;;;;;;;;;;;;;;;;;;;;
2021/04/12 06:09:48;;;;;;;1.75;1.65;;;;;;;2.70;69.44;101415.38;4858257;29;20035;-77
2021/04/12 06:12:52;;;;;;;1.50;1.40;;;;;;;2.82;70.19;101421.13;4838311;29;20028;-77
2021/04/12 06:16:05;;;;;;;1.90;1.80;;;;;;;2.94;70.02;101430.41;4828190;29;20045;-75
2021/04/12 06:19:04;;;;;;;3.30;0.90;;;;;;;3.04;69.43;101429.25;4857490;29;20029;-78
2021/04/12 06:22:02;;;;;;;;;;;;;;;;;;;;;
2021/04/12 06:25:50;;;;;;;;;;;;;;;;;;;;;
2021/04/12 06:33:20;;;;;;;;;;;;;;;;;;;;;
2021/04/12 07:11:04;;;;;;;;;;;;;;;;;;;;;
2021/04/12 07:51:53;;;;;;;1.00;0.90;;;;;;;5.03;70.64;101477.72;2368701;27;20050;-78
2021/04/12 07:54:52;;;;;;;3.00;1.42;;;;;;;5.04;71.71;101476.69;4862521;29;20037;-77
2021/04/12 08:01:32;;;;;;;;;;;;;;;;;;;;;
2021/04/12 08:11:33;;;;;;;;;;;;;;;;;;;;;
2021/04/12 08:14:45;;;;;;;5.45;1.02;;;;;;;5.96;70.52;101476.19;4814601;29;20046;-77
2021/04/12 08:21:07;;;;;;;;;;;;;;;;;;;;;
2021/04/12 08:24:27;;;;;;;3.60;0.95;;;;;;;6.62;69.99;101479.88;4881853;29;20127;-75
2021/04/12 08:33:39;;;;;;;0.50;0.50;;;;;;;7.72;65.52;101484.31;4836621;29;20041;-77
2021/04/12 08:36:44;;;;;;;1.60;0.60;;;;;;;8.21;64.79;101503.59;4887124;29;20093;-80
2021/04/12 08:39:29;;;;;;;1.57;1.47;;;;;;;8.47;64.67;101497.09;4882607;29;20457;-79
2021/04/12 08:42:27;;;;;;;2.15;0.52;;;;;;;8.95;63.74;101486.47;4869536;29;20602;-77
2021/04/12 08:45:14;;;;;;;0.28;0.28;;;;;;;9.43;63.34;101510.19;4885788;29;20044;-78
2021/04/12 08:47:48;;;;;;;0.65;0.40;;;;;;;9.67;60.52;101511.09;4883914;29;20042;-81
2021/04/12 08:51:03;;;;;;;;;;;;;;;;;;;;;
2021/04/12 08:53:36;;;;;;;1.10;0.47;;;;;;;9.66;59.05;101522.25;4883569;29;20129;-82
2021/04/12 08:56:37;;;;;;;2.20;0.55;;;;;;;9.82;58.32;101518.84;4878317;29;20040;-79
2021/04/12 08:59:58;;;;;;;0.40;0.40;;;;;;;9.87;57.72;101531.81;4870844;29;20025;-80
2021/04/12 09:02:52;;;;;;;1.02;0.32;;;;;;;9.77;57.70;101529.66;4809994;29;20022;-80
2021/04/12 09:05:42;;;;;;;0.45;0.45;;;;;;;9.84;57.80;101537.75;4868749;29;20071;-81
2021/04/12 09:08:43;;;;;;;0.35;0.25;;;;;;;9.83;58.06;101536.91;4869810;29;20040;-81
2021/04/12 09:11:33;;;;;;;1.27;0.40;;;;;;;9.88;58.66;101537.03;4864574;29;20035;-80
2021/04/12 09:14:14;;;;;;;0.22;0.20;;;;;;;9.87;57.51;101551.78;4857242;29;20426;-82
2021/04/12 09:16:52;;;;;;;3.50;0.40;;;;;;;9.89;58.07;101540.63;4873298;29;20029;-80
2021/04/12 09:19:47;;;;;;;0.20;0.20;;;;;;;10.08;57.36;101547.66;4879939;29;20069;-80
2021/04/12 09:22:54;;;;;;;0.43;0.43;;;;;;;10.07;56.20;101539.69;4871675;29;20028;-80
2021/04/12 09:25:22;;;;;;;;;;;;;;;10.15;56.22;101553.03;4891256;29;20033;-79
2021/04/12 09:31:49;;;;;;;;;;;;;;;;;;;;;
2021/04/12 09:34:33;;;;;;;0.75;0.47;;;;;;;10.81;55.11;101569.34;4878663;29;20060;-81
2021/04/12 09:37:45;;;;;;;0.77;0.40;;;;;;;11.29;54.97;101557.22;4866849;29;20024;-81
2021/04/12 09:40:26;;;;;;;0.52;0.40;;;;;;;11.70;52.92;101555.25;4882288;29;20028;-82
2021/04/12 09:43:29;;;;;;;0.20;0.20;;;;;;;11.63;51.15;101575.66;4879615;29;20029;-81
2021/04/12 09:46:36;;;;;;;;;;;;;;;;;;;;;
2021/04/12 09:49:31;;;;;;;0.30;0.20;;;;;;;14.00;51.96;101563.38;4881344;29;20092;-80
2021/04/12 09:52:19;;;;;;;0.28;0.28;;;;;;;15.54;50.38;101575.31;4859736;29;20465;-81
2021/04/12 09:55:39;;;;;;;;;;;;;;;;;;;;;
2021/04/12 09:58:18;;;;;;;0.20;0.10;;;;;;;19.29;44.13;101584.91;4870109;29;20100;-82
2021/04/12 10:00:54;;;;;;;0.40;0.20;;;;;;;20.54;37.58;101574.41;4864833;29;20088;-82
2021/04/12 10:04:21;;;;;;;0.22;0.20;;;;;;;20.54;33.21;101585.53;4863851;29;20033;-80
2021/04/12 10:06:49;;;;;;;2.77;0.23;;;;;;;19.39;33.90;101595.06;4878269;29;20036;-82
2021/04/12 10:09:55;;;;;;;0.17;0.17;;;;;;;18.55;34.86;101591.53;4875274;29;20086;-83
2021/04/12 10:13:06;;;;;;;;;;;;;;;;;;;;;
2021/04/12 10:15:55;;;;;;;0.20;0.20;;;;;;;17.29;36.52;101591.00;4875606;29;20065;-84
2021/04/12 10:19:01;;;;;;;;;;;;;;;;;;;;;
2021/04/12 10:22:16;;;;;;;0.52;0.10;;;;;;;18.61;36.62;101612.50;4883394;29;20048;-78
2021/04/12 10:25:19;;;;;;;0.80;0.10;;;;;;;18.23;34.56;101592.09;4886768;29;20097;-79
2021/04/12 10:28:18;;;;;;;0.28;0.10;;;;;;;17.41;34.71;101583.19;4894231;29;20029;-80
2021/04/12 10:31:25;;;;;;;;;;;;;;;;;;;;;
2021/04/12 10:34:28;;;;;;;0.68;0.28;;;;;;;18.55;36.19;101618.41;4896353;29;20056;-78
2021/04/12 10:37:34;;;;;;;0.20;0.20;;;;;;;19.66;34.77;101636.84;4873167;29;20107;-79
2021/04/12 10:40:32;;;;;;;0.20;0.10;;;;;;;21.24;31.86;101626.19;4882585;29;20040;-79
2021/04/12 10:43:23;;;;;;;0.65;0.65;;;;;;;22.17;30.65;101628.94;4864396;29;20029;-79
2021/04/12 10:45:58;;;;;;;0.32;0.22;;;;;;;21.66;30.15;101631.75;4865643;29;20030;-79
2021/04/12 10:52:26;;;;;;;0.10;0.10;;;;;;;20.75;30.19;101636.88;4871750;29;20532;-78
2021/04/12 10:55:30;;;;;;;0.30;0.20;;;;;;;21.67;29.60;101641.75;4844748;29;20485;-79
2021/04/12 10:58:42;;;;;;;;;;;;;;;;;;;;;
2021/04/12 11:02:00;;;;;;;;;;;;;;;;;;;;;
2021/04/12 11:04:32;;;;;;;0.25;0.10;;;;;;;21.16;26.78;101648.34;4876326;29;20090;-79
2021/04/12 11:07:42;;;;;;;;;;;;;;;;;;;;;
2021/04/12 11:10:53;;;;;;;0.32;0.20;;;;;;;22.04;26.89;101659.28;4877128;29;20021;-79
2021/04/12 11:13:53;;;;;;;;;;;;;;;;;;;;;
2021/04/12 11:16:50;;;;;;;;;;;;;;;;;;;;;
2021/04/12 11:20:03;;;;;;;;;;;;;;;;;;;;;
2021/04/12 11:22:32;;;;;;;0.00;0.00;;;;;;;23.32;28.66;101671.13;4783566;29;20567;-81
2021/04/12 11:25:33;;;;;;;0.25;0.10;;;;;;;25.00;25.67;101668.06;4787024;29;20051;-79
2021/04/12 11:29:03;;;;;;;;;;;;;;;;;;;;;
2021/04/12 11:31:52;;;;;;;0.00;0.00;;;;;;;27.82;24.09;101680.06;4796024;29;20575;-80
2021/04/12 11:34:56;;;;;;;0.00;0.00;;;;;;;28.77;22.53;101681.63;4878993;29;20037;-81
2021/04/12 11:37:48;;;;;;;;;;;;;;;;;;;;;
2021/04/12 11:40:23;;;;;;;0.00;0.00;;;;;;;30.49;19.89;101681.25;4876852;29;20112;-75
2021/04/12 11:43:15;;;;;;;0.00;0.00;;;;;;;31.35;17.69;101665.84;4862811;29;20101;-77
2021/04/12 11:45:49;;;;;;;0.03;0.00;;;;;;;30.62;17.58;101685.53;4844674;29;20040;-77
2021/04/12 11:49:14;;;;;;;;;;;;;;;;;;;;;
2021/04/12 11:52:04;;;;;;;;;;;;;;;;;;;;;
2021/04/12 11:54:39;;;;;;;0.10;0.10;;;;;;;29.74;18.43;101687.69;4870966;29;20438;-76
2021/04/12 11:57:54;;;;;;;0.10;0.10;;;;;;;31.13;17.35;101688.13;4863338;29;20033;-78
2021/04/12 12:00:43;;;;;;;0.10;0.10;;;;;;;32.18;18.14;101684.88;4868380;29;20041;-76
2021/04/12 12:03:17;;;;;;;0.10;0.08;;;;;;;32.97;16.58;101681.28;4866601;29;20051;-76
2021/04/12 12:06:04;;;;;;;0.10;0.10;;;;;;;33.55;15.44;101711.72;4865242;29;20046;-76
2021/04/12 12:09:01;;;;;;;0.10;0.10;;;;;;;32.14;14.37;101706.63;4881323;29;20360;-77
2021/04/12 12:11:50;;;;;;;0.20;0.20;;;;;;;30.43;15.77;101701.31;4860185;29;20034;-76
2021/04/12 12:14:48;;;;;;;0.70;0.10;;;;;;;29.33;15.95;101701.22;4876696;29;20037;-76
2021/04/12 12:17:26;;;;;;;0.22;0.15;;;;;;;27.43;16.44;101702.09;4887807;29;20428;-76
2021/04/12 12:20:00;;;;;;;0.10;0.10;;;;;;;25.77;17.53;101707.25;4881389;29;20033;-74
2021/04/12 12:22:40;;;;;;;0.50;0.30;;;;;;;23.99;19.43;101680.34;4874983;29;20040;-77
2021/04/12 12:25:31;;;;;;;0.10;0.10;;;;;;;22.96;20.25;101698.00;4853637;29;20116;-76
2021/04/12 12:28:17;;;;;;;0.10;0.10;;;;;;;21.98;21.19;101702.31;4857503;29;20049;-75
2021/04/12 12:31:32;;;;;;;0.13;0.13;;;;;;;21.24;21.48;101703.25;4878827;29;20085;-78
2021/04/12 12:35:06;;;;;;;;;;;;;;;;;;;;;
2021/04/12 12:38:11;;;;;;;0.88;0.10;;;;;;;20.72;22.71;101701.41;4819893;29;20106;-77
2021/04/12 12:41:18;;;;;;;0.15;0.15;;;;;;;20.52;23.25;101710.06;4822668;29;20062;-78
2021/04/12 12:48:35;;;;;;;;;;;;;;;;;;;;;
2021/04/12 12:51:09;;;;;;;0.52;0.00;;;;;;;24.87;22.30;101697.91;4813826;29;20201;-79
2021/04/12 12:53:53;;;;;;;0.10;0.10;;;;;;;25.51;20.25;101719.44;4796661;29;20528;-79
2021/04/12 13:17:37;;;;;;;;;;;;;;;;;;;;;
2021/04/12 13:43:32;;;;;;;0.10;0.10;;;;;;;20.92;22.83;101699.38;2850834;27;20045;-79
2021/04/12 13:46:27;;;;;;;0.40;0.40;;;;;;;20.93;21.92;101710.19;4882661;29;20033;-79
2021/04/12 13:49:44;;;;;;;0.10;0.10;;;;;;;20.60;22.39;101712.13;4896406;29;20060;-78
2021/04/12 13:52:32;;;;;;;;;;;;;;;;;;;;;
2021/04/12 13:56:04;;;;;;;;;;;;;;;;;;;;;
2021/04/12 13:58:31;;;;;;;0.00;0.00;;;;;;;21.92;23.32;101700.78;4821121;29;20036;-79
2021/04/12 14:04:20;;;;;;;0.00;0.00;;;;;;;25.60;22.80;101709.00;4846248;29;20094;-79
2021/04/12 14:52:41;;;;;;;;;;;;;;;;;;;;;
2021/04/12 14:55:27;;;;;;;;;;;;;;;;;;;;;
2021/04/12 14:58:14;;;;;;;;;;;;;;;;;;;;;
2021/04/12 15:01:02;;;;;;;;;;;;;;;;;;;;;
2021/04/12 15:03:57;;;;;;;0.25;0.10;;;;;;;26.23;14.91;101710.25;4854452;29;20089;-80
2021/04/12 15:06:45;;;;;;;;;;;;;;;;;;;;;
2021/04/12 15:12:58;;;;;;;0.50;0.10;;;;;;;24.83;16.55;101697.72;4843449;29;20033;-81
2021/04/12 15:16:28;;;;;;;;;;;;;;;;;;;;;
2021/04/12 15:19:48;;;;;;;;;;;;;;;;;;;;;
2021/04/12 15:39:56;;;;;;;1.17;0.10;;;;;;;27.69;14.89;101715.78;4745668;29;20407;-80
2021/04/12 15:42:49;;;;;;;0.05;0.05;;;;;;;25.92;15.84;101691.84;4777675;29;20495;-76
2021/04/12 16:07:09;;;;;;;0.00;0.00;;;;;;;22.12;20.33;101722.63;4600204;31;20162;-76
2021/04/12 16:09:38;;;;;;;0.15;0.10;;;;;;;23.99;19.34;101725.03;4590750;31;20385;-77
2021/04/12 16:20:04;;;;;;;;;;;;;;;;;;;;;
2021/04/12 16:29:58;;;;;;;0.20;0.10;;;;;;;23.95;16.73;101735.22;4642792;30;20045;-76
2021/04/12 16:32:47;;;;;;;0.00;0.00;;;;;;;22.56;17.42;101699.88;4651879;30;20066;-78
2021/04/12 16:35:29;;;;;;;0.10;0.10;;;;;;;21.84;18.69;101732.97;4669520;30;20532;-77
2021/04/12 16:38:30;;;;;;;;;;;;;;;;;;;;;
2021/04/12 16:41:09;;;;;;;;;;;;;;;;;;;;;
2021/04/12 16:43:44;;;;;;;0.10;0.10;;;;;;;22.16;20.13;101727.56;4836851;29;20104;-76
2021/04/12 16:46:24;;;;;;;0.20;0.20;;;;;;;22.19;19.20;101732.50;4867128;29;20081;-75
2021/04/12 16:48:53;;;;;;;0.22;0.22;;;;;;;21.33;19.44;101722.84;4861385;29;20358;-77
2021/04/12 16:51:27;;;;;;;0.30;0.10;;;;;;;20.47;19.33;101730.41;4867194;29;20037;-76
2021/04/12 16:54:05;;;;;;;0.20;0.15;;;;;;;19.63;20.18;101740.09;4866078;29;20054;-77
2021/04/12 16:56:47;;;;;;;0.20;0.20;;;;;;;18.96;20.84;101732.47;4869119;29;20030;-78
2021/04/12 16:59:41;;;;;;;0.22;0.10;;;;;;;18.44;21.19;101736.75;4852865;29;20113;-78
2021/04/12 17:02:31;;;;;;;0.00;0.00;;;;;;;18.03;21.76;101731.44;4868151;29;20061;-78
2021/04/12 17:05:13;;;;;;;0.00;0.00;;;;;;;17.71;21.81;101738.19;4847135;29;20044;-80
2021/04/12 17:07:54;;;;;;;0.00;0.00;;;;;;;17.34;22.31;101709.81;4866500;29;20049;-78
2021/04/12 17:10:40;;;;;;;0.03;0.03;;;;;;;17.14;22.24;101716.22;4865987;29;20116;-79
2021/04/12 17:13:31;;;;;;;0.00;0.00;;;;;;;16.91;22.21;101734.25;4863891;29;20111;-77
2021/04/12 17:16:07;;;;;;;0.13;0.10;;;;;;;16.66;23.11;101735.00;4859179;29;20113;-76
2021/04/12 17:18:56;;;;;;;0.47;0.00;;;;;;;16.55;22.64;101748.81;4858920;29;20461;-78
2021/04/12 17:21:42;;;;;;;0.08;0.08;;;;;;;16.41;23.60;101742.16;4858893;29;20033;-78
2021/04/12 17:24:20;;;;;;;;;;;;;;;16.30;23.06;101751.53;4869265;29;20061;-83
2021/04/12 17:27:02;;;;;;;0.00;0.00;;;;;;;16.87;24.24;101745.00;4862814;29;19962;-76
2021/04/12 17:29:43;;;;;;;0.10;0.10;;;;;;;17.56;24.49;101756.50;4871843;29;20096;-78
2021/04/12 17:32:53;;;;;;;;;;;;;;;;;;;;;
2021/04/12 17:35:54;;;;;;;;;;;;;;;;;;;;;
2021/04/12 17:39:06;;;;;;;0.00;0.00;;;;;;;20.27;23.29;101750.97;4849969;29;20116;-79
2021/04/12 17:42:01;;;;;;;0.10;0.10;;;;;;;20.89;22.56;101758.38;4834730;29;20057;-80
2021/04/12 17:44:57;;;;;;;0.00;0.00;;;;;;;20.86;22.44;101736.75;4853640;29;20037;-79
2021/04/12 17:48:10;;;;;;;0.08;0.00;;;;;;;21.12;22.26;101750.22;4857792;29;20037;-79
2021/04/12 17:50:55;;;;;;;0.10;0.10;;;;;;;21.37;21.74;101763.66;4803066;29;20191;-82
2021/04/12 17:53:36;;;;;;;0.10;0.03;;;;;;;21.40;22.00;101765.00;4758941;29;813780;-81
2021/04/12 17:56:51;;;;;;;0.00;0.00;;;;;;;21.29;21.27;101739.34;4834452;29;20060;-80
2021/04/12 17:59:40;;;;;;;0.00;0.00;;;;;;;21.38;21.03;101758.94;4853694;29;20037;-77
2021/04/12 18:02:40;;;;;;;;;;;;;;;;;;;;;
2021/04/12 18:05:47;;;;;;;0.10;0.10;;;;;;;20.58;20.98;101758.84;4864914;29;20113;-79
2021/04/12 18:08:31;;;;;;;0.10;0.10;;;;;;;19.60;21.88;101757.34;4851603;29;20040;-79
2021/04/12 18:11:18;;;;;;;0.08;0.00;;;;;;;19.12;22.05;101757.31;4861932;29;20549;-80
2021/04/12 18:14:29;;;;;;;0.00;0.00;;;;;;;18.86;22.28;101746.44;4867247;29;20111;-79
2021/04/12 18:17:25;;;;;;;0.00;0.00;;;;;;;18.81;22.75;101763.09;4868527;29;20052;-84
2021/04/12 18:20:10;;;;;;;;;;;;;;;;;;;;;
2021/04/12 18:22:39;;;;;;;;;;;;;;;17.71;22.23;101763.09;4865060;29;20124;-80
2021/04/12 18:25:13;;;;;;;0.20;0.20;;;;;;;16.83;23.01;101743.84;4862985;29;19916;-78
2021/04/12 18:28:00;;;;;;;;;;;;;;;;;;;;;
2021/04/12 18:30:53;;;;;;;0.10;0.10;;;;;;;15.52;23.23;101764.97;4868992;29;20120;-79
2021/04/12 18:33:36;;;;;;;0.00;0.00;;;;;;;14.97;24.32;101769.00;4869814;29;20027;-80
2021/04/12 18:39:58;;;;;;;0.00;0.00;;;;;;;13.73;24.40;101759.41;4831982;29;20030;-80
2021/04/12 18:42:49;;;;;;;2.10;0.10;;;;;;;13.44;24.67;101775.22;4855706;29;20065;-82
2021/04/12 18:45:28;;;;;;;1.95;0.10;;;;;;;12.98;24.96;101757.97;4849294;29;20045;-81
2021/04/12 18:48:31;;;;;;;0.70;0.20;;;;;;;12.72;25.38;101777.59;4876932;29;20017;-80
2021/04/12 18:51:15;;;;;;;;;;;;;;;;;;;;;
2021/04/12 18:54:29;;;;;;;;;;;;;;;;;;;;;
2021/04/12 19:07:39;;;;;;;0.10;0.08;;;;;;;10.77;28.04;101789.78;4806019;29;20117;-78
2021/04/12 19:20:42;;;;;;;;;;;;;;;;;;;;;
2021/04/12 19:27:34;;;;;;;0.00;0.00;;;;;;;9.69;28.28;101819.50;4790835;29;20027;-78
2021/04/12 19:33:40;;;;;;;;;;;;;;;;;;;;;
2021/04/12 19:37:07;;;;;;;;;;;;;;;;;;;;;
2021/04/12 19:47:52;;;;;;;0.00;0.00;;;;;;;9.13;29.15;101833.03;4675983;30;20073;-80
2021/04/12 19:51:00;;;;;;;;;;;;;;;;;;;;;
2021/04/12 19:53:48;;;;;;;0.00;0.00;;;;;;;8.94;29.65;101823.94;4632307;30;20109;-75
2021/04/12 19:57:01;;;;;;;0.00;0.00;;;;;;;8.73;30.02;101795.97;4684122;30;20034;-80
2021/04/12 20:00:07;;;;;;;0.10;0.08;;;;;;;8.76;30.62;101830.16;4651987;30;20038;-79
2021/04/12 20:03:32;;;;;;;0.27;0.23;;;;;;;8.67;30.13;101828.72;4669069;30;20042;-77
2021/04/12 20:10:42;;;;;;;;;;;;;;;;;;;;;
2021/04/12 20:13:55;;;;;;;1.95;1.08;;;;;;;8.35;30.70;101831.38;4687856;30;20140;-75
2021/04/12 20:17:49;;;;;;;0.73;0.60;;;;;;;8.30;30.97;101842.09;4716118;30;20073;-75
2021/04/12 20:27:15;;;;;;;;;;;;;;;;;;;;;
2021/04/12 20:30:43;;;;;;;0.10;0.10;;;;;;;7.85;32.61;101853.75;4870906;29;20097;-76
2021/04/12 20:40:14;;;;;;;0.30;0.20;;;;;;;7.50;33.10;101840.41;4878934;29;20160;-75
2021/04/12 20:43:49;;;;;;;;;;;;;;;;;;;;;
2021/04/12 20:46:54;;;;;;;;;;;;;;;;;;;;;
2021/04/12 20:49:43;;;;;;;0.20;0.20;;;;;;;7.18;33.99;101844.81;4860168;29;20057;-75
2021/04/12 20:52:26;;;;;;;;;;;;;;;;;;;;;
2021/04/12 21:13:39;;;;;;;;;;;;;;;;;;;;;
2021/04/12 21:16:26;;;;;;;;;;;;;;;;;;;;;
2021/04/12 21:19:12;;;;;;;2.28;0.55;;;;;;;6.13;37.45;101877.75;4720688;30;20105;-77
2021/04/12 21:22:10;;;;;;;0.43;0.30;;;;;;;5.97;37.81;101868.88;4741359;30;20068;-77
2021/04/12 21:25:01;;;;;;;;;;;;;;;;;;;;;
2021/04/12 21:34:52;;;;;;;0.10;0.10;;;;;;;5.81;38.92;101886.31;4704077;30;20044;-79
2021/04/12 21:38:13;;;;;;;;;;;;;;;;;;;;;
2021/04/12 21:44:54;;;;;;;;;;;;;;;;;;;;;
2021/04/12 21:50:56;;;;;;;0.00;0.00;;;;;;;5.77;38.29;101888.59;4709885;30;20045;-77
2021/04/12 22:00:45;;;;;;;;;;;;;;;;;;;;;
2021/04/12 22:03:52;;;;;;;0.00;0.00;;;;;;;5.64;39.43;101901.22;4706455;30;20131;-77
2021/04/12 22:10:09;;;;;;;;;;;;;;;;;;;;;
2021/04/12 22:12:50;;;;;;;;;;;;;;;;;;;;;
2021/04/12 22:15:21;;;;;;;0.32;0.30;;;;;;;5.59;40.99;101904.50;4853652;29;20097;-76
2021/04/12 22:17:56;;;;;;;0.20;0.20;;;;;;;5.49;40.50;101894.00;4863401;29;20043;-78
2021/04/12 22:20:58;;;;;;;;;;;;;;;;;;;;;